createdAt,value
2023-05-02T00:01:12.472Z,8.50
2023-05-02T00:04:14.063Z,8.50
2023-05-02T00:07:15.370Z,8.50
2023-05-02T00:10:16.518Z,8.50
2023-05-02T00:13:17.714Z,8.50
2023-05-02T00:16:19.082Z,8.50
2023-05-02T00:19:19.981Z,8.50
2023-05-02T00:22:20.842Z,8.50
2023-05-02T00:25:21.647Z,8.50
2023-05-02T00:28:22.965Z,8.50
2023-05-02T00:31:24.290Z,8.50
2023-05-02T00:34:31.122Z,8.50
2023-05-02T00:37:32.291Z,8.50
2023-05-02T00:40:46.982Z,8.50
2023-05-02T00:43:48.237Z,8.50
2023-05-02T00:46:49.359Z,8.50
2023-05-02T00:49:51.047Z,8.50
2023-05-02T00:52:51.879Z,8.50
2023-05-02T00:55:54.538Z,8.50
2023-05-02T00:58:55.844Z,8.60
2023-05-02T01:02:48.420Z,8.60
2023-05-02T01:06:35.753Z,8.60
2023-05-02T01:10:02.726Z,8.60
2023-05-02T01:13:21.026Z,8.50
2023-05-02T01:16:24.462Z,8.50
2023-05-02T01:19:41.851Z,8.50
2023-05-02T01:22:43.514Z,8.50
2023-05-02T01:26:10.717Z,8.50
2023-05-02T01:29:15.652Z,8.40
2023-05-02T01:32:20.646Z,8.40
2023-05-02T01:35:25.197Z,8.40
2023-05-02T01:38:28.792Z,8.30
2023-05-02T01:41:32.607Z,8.20
2023-05-02T01:44:36.802Z,8.20
2023-05-02T01:47:40.720Z,8.10
2023-05-02T01:50:45.831Z,8.10
2023-05-02T01:53:50.628Z,8.00
2023-05-02T01:56:52.997Z,7.90
2023-05-02T02:00:01.247Z,7.90
2023-05-02T02:03:09.619Z,7.80
2023-05-02T02:06:12.551Z,7.80
2023-05-02T02:09:14.510Z,7.80
2023-05-02T02:12:26.333Z,7.80
2023-05-02T02:15:35.464Z,7.70
2023-05-02T02:18:39.483Z,7.80
2023-05-02T02:21:46.389Z,7.70
2023-05-02T02:24:48.938Z,7.70
2023-05-02T02:27:51.865Z,7.80
2023-05-02T02:30:53.225Z,7.90
2023-05-02T02:33:54.620Z,7.90
2023-05-02T02:37:17.061Z,7.90
2023-05-02T02:40:30.095Z,8.00
2023-05-02T02:44:33.422Z,8.10
2023-05-02T02:47:53.947Z,8.10
2023-05-02T02:51:24.997Z,8.10
2023-05-02T02:55:11.640Z,8.10
2023-05-02T02:58:30.957Z,8.10
2023-05-02T03:01:36.650Z,8.20
2023-05-02T03:04:44.751Z,8.20
2023-05-02T03:07:46.258Z,8.20
2023-05-02T03:10:47.535Z,8.20
2023-05-02T03:13:49.753Z,8.20
2023-05-02T03:16:56.044Z,8.20
2023-05-02T03:19:57.903Z,8.30
2023-05-02T03:22:59.543Z,8.30
2023-05-02T03:26:01.588Z,8.30
2023-05-02T03:29:02.601Z,8.30
2023-05-02T03:32:09.640Z,8.40
2023-05-02T03:35:12.534Z,8.40
2023-05-02T03:38:18.118Z,8.50
2023-05-02T03:41:23.167Z,8.50
2023-05-02T03:44:29.989Z,8.50
2023-05-02T03:47:31.406Z,8.50
2023-05-02T03:50:32.804Z,8.60
2023-05-02T03:53:34.634Z,8.60
2023-05-02T03:56:36.998Z,8.50
2023-05-02T03:59:49.918Z,8.60
2023-05-02T04:03:02.359Z,8.50
2023-05-02T04:06:05.071Z,8.50
2023-05-02T04:09:06.431Z,8.50
2023-05-02T04:12:16.365Z,8.50
2023-05-02T04:15:21.279Z,8.40
2023-05-02T04:18:24.863Z,8.40
2023-05-02T04:21:27.870Z,8.40
2023-05-02T04:24:29.373Z,8.40
2023-05-02T04:27:32.309Z,8.40
2023-05-02T04:30:34.550Z,8.40
2023-05-02T04:33:41.334Z,8.40
2023-05-02T04:36:42.660Z,8.40
2023-05-02T04:39:47.508Z,8.40
2023-05-02T04:42:54.550Z,8.40
2023-05-02T04:45:59.108Z,8.40
2023-05-02T04:49:04.983Z,8.40
2023-05-02T04:52:06.663Z,8.40
2023-05-02T04:55:09.071Z,8.40
2023-05-02T04:58:11.407Z,8.50
2023-05-02T05:01:13.505Z,8.50
2023-05-02T05:04:14.909Z,8.50
2023-05-02T05:07:16.019Z,8.50
2023-05-02T05:10:20.237Z,8.60
2023-05-02T05:13:21.335Z,8.60
2023-05-02T05:16:24.233Z,8.60
2023-05-02T05:19:26.512Z,8.70
2023-05-02T05:22:27.539Z,8.70
2023-05-02T05:25:28.501Z,8.70
2023-05-02T05:28:30.607Z,8.70
2023-05-02T05:31:32.036Z,8.80
2023-05-02T05:34:34.567Z,8.80
2023-05-02T05:37:37.707Z,8.80
2023-05-02T05:40:40.216Z,8.90
2023-05-02T05:43:43.428Z,9.00
2023-05-02T05:46:44.644Z,9.10
2023-05-02T05:49:47.704Z,9.30
2023-05-02T05:52:50.057Z,9.30
2023-05-02T05:55:51.427Z,9.30
2023-05-02T05:58:55.032Z,9.30
2023-05-02T06:01:56.128Z,9.30
2023-05-02T06:04:57.959Z,9.40
2023-05-02T06:08:00.634Z,9.50
2023-05-02T06:11:01.812Z,9.60
2023-05-02T06:14:02.624Z,9.70
2023-05-02T06:17:04.193Z,9.60
2023-05-02T06:20:05.692Z,9.70
2023-05-02T06:23:06.864Z,9.80
2023-05-02T06:26:08.385Z,9.80
2023-05-02T06:29:09.276Z,9.90
2023-05-02T06:32:10.330Z,9.90
2023-05-02T06:35:12.416Z,10.00
2023-05-02T06:38:13.498Z,10.10
2023-05-02T06:41:18.437Z,10.10
2023-05-02T06:44:19.442Z,10.20
2023-05-02T06:47:20.521Z,10.30
2023-05-02T06:50:22.148Z,10.40
2023-05-02T06:53:23.381Z,10.50
2023-05-02T06:56:26.391Z,10.60
2023-05-02T06:59:27.799Z,10.60
2023-05-02T07:02:28.873Z,10.50
2023-05-02T07:05:31.361Z,10.60
2023-05-02T07:08:32.339Z,10.40
2023-05-02T07:11:33.356Z,10.20
2023-05-02T07:14:34.263Z,10.30
2023-05-02T07:17:35.184Z,10.30
2023-05-02T07:20:36.471Z,10.30
2023-05-02T07:23:37.219Z,10.40
2023-05-02T07:26:38.216Z,10.40
2023-05-02T07:29:39.720Z,10.50
2023-05-02T07:32:40.765Z,10.60
2023-05-02T07:35:41.839Z,10.60
2023-05-02T07:38:42.835Z,10.60
2023-05-02T07:41:44.064Z,10.60
2023-05-02T07:44:44.865Z,10.60
2023-05-02T07:47:47.199Z,10.80
2023-05-02T07:50:48.504Z,11.00
2023-05-02T07:53:58.738Z,10.90
2023-05-02T07:57:03.140Z,10.90
2023-05-02T08:00:08.174Z,11.10
2023-05-02T08:03:14.053Z,11.10
2023-05-02T08:06:15.459Z,11.20
2023-05-02T08:09:16.797Z,11.20
2023-05-02T08:12:17.576Z,11.40
2023-05-02T08:15:18.524Z,11.30
2023-05-02T08:18:19.224Z,11.20
2023-05-02T08:21:20.153Z,11.20
2023-05-02T08:24:21.709Z,11.40
2023-05-02T08:27:22.490Z,11.60
2023-05-02T08:30:23.610Z,11.70
2023-05-02T08:33:24.635Z,11.80
2023-05-02T08:36:26.409Z,12.00
2023-05-02T08:39:27.379Z,11.90
2023-05-02T08:42:33.239Z,11.90
2023-05-02T08:45:44.325Z,11.90
2023-05-02T08:48:48.603Z,12.00
2023-05-02T08:51:51.973Z,11.80
2023-05-02T08:54:55.118Z,11.90
2023-05-02T08:57:58.410Z,11.80
2023-05-02T09:01:10.787Z,11.80
2023-05-02T09:04:12.416Z,11.90
2023-05-02T09:07:13.501Z,12.10
2023-05-02T09:10:15.564Z,12.30
2023-05-02T09:13:37.094Z,12.30
2023-05-02T09:16:40.690Z,12.40
2023-05-02T09:19:42.174Z,12.40
2023-05-02T09:22:52.016Z,12.40
2023-05-02T09:25:53.109Z,12.30
2023-05-02T09:28:57.946Z,12.40
2023-05-02T09:31:59.101Z,12.40
2023-05-02T09:35:07.481Z,12.60
2023-05-02T09:38:23.196Z,13.00
2023-05-02T09:41:24.358Z,13.10
2023-05-02T09:44:36.315Z,13.70
2023-05-02T09:47:37.060Z,14.30
2023-05-02T09:50:39.167Z,13.70
2023-05-02T09:53:47.722Z,13.60
2023-05-02T09:56:56.933Z,13.20
2023-05-02T09:59:59.043Z,13.00
2023-05-02T10:03:00.444Z,13.60
2023-05-02T10:06:02.502Z,14.00
2023-05-02T10:09:04.077Z,14.90
2023-05-02T10:12:05.392Z,15.20
2023-05-02T10:15:10.698Z,14.70
2023-05-02T10:18:26.961Z,13.90
2023-05-02T10:21:28.315Z,14.40
2023-05-02T10:24:33.018Z,14.90
2023-05-02T10:27:34.196Z,14.90
2023-05-02T10:30:36.394Z,15.60
2023-05-02T10:33:39.137Z,16.00
2023-05-02T10:36:40.897Z,16.30
2023-05-02T10:39:42.103Z,16.50
2023-05-02T10:42:47.995Z,16.20
2023-05-02T10:45:54.217Z,16.30
2023-05-02T10:49:06.583Z,16.20
2023-05-02T10:52:35.433Z,16.00
2023-05-02T10:55:36.462Z,16.20
2023-05-02T10:58:37.703Z,16.30
2023-05-02T11:01:40.127Z,16.80
2023-05-02T11:05:05.154Z,17.00
2023-05-02T11:08:23.250Z,16.90
2023-05-02T11:11:42.792Z,16.70
2023-05-02T11:14:47.670Z,17.70
2023-05-02T11:18:07.871Z,17.60
2023-05-02T11:21:30.040Z,16.20
2023-05-02T11:24:47.777Z,15.80
2023-05-02T11:27:49.497Z,16.60
2023-05-02T11:30:51.255Z,16.00
2023-05-02T11:34:00.855Z,16.20
2023-05-02T11:37:11.519Z,16.30
2023-05-02T11:40:14.543Z,16.20
2023-05-02T11:43:18.997Z,16.30
2023-05-02T11:46:21.370Z,17.80
2023-05-02T11:49:22.538Z,18.20
2023-05-02T11:52:24.907Z,18.40
2023-05-02T11:55:26.025Z,18.60
2023-05-02T11:58:32.739Z,16.20
2023-05-02T12:01:34.196Z,17.40
2023-05-02T12:04:44.847Z,18.50
2023-05-02T12:07:49.503Z,19.70
2023-05-02T12:10:54.935Z,19.70
2023-05-02T12:13:55.697Z,19.30
2023-05-02T12:16:58.818Z,19.00
2023-05-02T12:20:03.160Z,18.50
2023-05-02T12:23:07.268Z,18.00
2023-05-02T12:26:29.591Z,18.10
2023-05-02T12:29:46.966Z,18.10
2023-05-02T12:33:03.853Z,18.30
2023-05-02T12:36:10.170Z,18.80
2023-05-02T12:39:12.245Z,21.20
2023-05-02T12:42:21.831Z,22.10
2023-05-02T12:45:23.027Z,22.00
2023-05-02T12:48:28.354Z,21.70
2023-05-02T12:51:31.712Z,21.70
2023-05-02T12:54:32.738Z,21.30
2023-05-02T12:57:34.153Z,21.80
2023-05-02T13:00:44.883Z,22.00
2023-05-02T13:03:46.984Z,21.50
2023-05-02T13:06:48.399Z,23.30
2023-05-02T13:09:49.290Z,20.60
2023-05-02T13:12:50.325Z,18.60
2023-05-02T13:15:51.375Z,18.80
2023-05-02T13:18:52.561Z,19.70
2023-05-02T13:21:53.496Z,20.80
2023-05-02T13:24:55.293Z,22.30
2023-05-02T13:27:56.512Z,23.30
2023-05-02T13:30:57.399Z,24.20
2023-05-02T13:33:58.314Z,24.80
2023-05-02T13:36:59.142Z,25.00
2023-05-02T13:40:00.368Z,24.80
2023-05-02T13:43:01.786Z,25.60
2023-05-02T13:46:03.030Z,26.70
2023-05-02T13:49:04.629Z,26.30
2023-05-02T13:52:05.808Z,24.60
2023-05-02T13:55:07.524Z,23.80
2023-05-02T13:58:08.751Z,22.90
2023-05-02T14:01:10.001Z,22.70
2023-05-02T14:04:11.574Z,23.20
2023-05-02T14:07:12.754Z,22.30
2023-05-02T14:10:13.880Z,23.30
2023-05-02T14:13:14.696Z,23.90
2023-05-02T14:16:15.728Z,22.70
2023-05-02T14:19:16.936Z,23.00
2023-05-02T14:22:17.768Z,23.30
2023-05-02T14:25:20.711Z,24.20
2023-05-02T14:28:22.396Z,21.80
2023-05-02T14:31:23.376Z,19.90
2023-05-02T14:34:27.089Z,21.20
2023-05-02T14:37:28.112Z,23.20
2023-05-02T14:40:29.461Z,23.90
2023-05-02T14:43:30.674Z,24.50
2023-05-02T14:46:31.453Z,22.90
2023-05-02T14:49:32.384Z,20.50
2023-05-02T14:52:33.685Z,20.30
2023-05-02T14:55:39.067Z,20.30
2023-05-02T14:58:40.220Z,19.70
2023-05-02T15:01:41.014Z,18.20
2023-05-02T15:04:42.353Z,18.00
2023-05-02T15:07:43.686Z,19.10
2023-05-02T15:10:44.540Z,21.50
2023-05-02T15:13:45.539Z,22.10
2023-05-02T15:16:46.560Z,23.00
2023-05-02T15:19:47.616Z,23.60
2023-05-02T15:22:49.673Z,24.80
2023-05-02T15:25:50.947Z,24.80
2023-05-02T15:28:52.022Z,24.50
2023-05-02T15:31:54.838Z,24.80
2023-05-02T15:34:55.940Z,23.40
2023-05-02T15:37:57.143Z,23.80
2023-05-02T15:41:00.575Z,24.00
2023-05-02T15:44:02.031Z,24.10
2023-05-02T15:47:04.380Z,23.70
2023-05-02T15:50:06.738Z,22.90
2023-05-02T15:53:07.974Z,22.70
2023-05-02T15:56:10.687Z,22.10
2023-05-02T15:59:11.782Z,22.10
2023-05-02T16:02:12.834Z,22.20
2023-05-02T16:05:13.872Z,22.00
2023-05-02T16:08:14.645Z,20.40
2023-05-02T16:11:15.738Z,19.30
2023-05-02T16:14:16.669Z,17.80
2023-05-02T16:17:17.707Z,18.60
2023-05-02T16:20:19.249Z,20.10
2023-05-02T16:23:22.373Z,19.90
2023-05-02T16:26:23.369Z,19.30
2023-05-02T16:29:24.264Z,18.00
2023-05-02T16:32:25.936Z,18.00
2023-05-02T16:35:27.296Z,17.40
2023-05-02T16:38:28.160Z,17.40
2023-05-02T16:41:29.616Z,16.70
2023-05-02T16:44:30.788Z,16.80
2023-05-02T16:47:31.763Z,16.70
2023-05-02T16:50:32.750Z,16.10
2023-05-02T16:53:33.568Z,16.00
2023-05-02T16:56:34.881Z,15.60
2023-05-02T16:59:35.720Z,15.50
2023-05-02T17:02:36.697Z,15.10
2023-05-02T17:05:37.934Z,14.60
2023-05-02T17:08:39.568Z,14.70
2023-05-02T17:11:41.384Z,14.40
2023-05-02T17:14:43.015Z,14.30
2023-05-02T17:17:44.531Z,14.20
2023-05-02T17:20:47.000Z,14.00
2023-05-02T17:23:48.090Z,13.80
2023-05-02T17:26:51.345Z,13.70
2023-05-02T17:29:52.284Z,13.60
2023-05-02T17:32:53.289Z,13.50
2023-05-02T17:35:54.560Z,13.60
2023-05-02T17:38:55.885Z,13.80
2023-05-02T17:41:57.229Z,13.70
2023-05-02T17:44:58.554Z,13.60
2023-05-02T17:48:00.025Z,13.50
2023-05-02T17:51:04.304Z,13.50
2023-05-02T17:54:05.094Z,13.40
2023-05-02T17:57:06.335Z,13.50
2023-05-02T18:00:08.411Z,13.50
2023-05-02T18:03:09.642Z,13.50
2023-05-02T18:06:18.962Z,13.40
2023-05-02T18:09:20.239Z,13.20
2023-05-02T18:12:21.215Z,13.20
2023-05-02T18:15:22.266Z,13.00
2023-05-02T18:18:23.502Z,12.70
2023-05-02T18:21:25.908Z,12.50
2023-05-02T18:24:27.474Z,12.40
2023-05-02T18:27:28.928Z,12.20
2023-05-02T18:30:29.810Z,12.20
2023-05-02T18:33:31.303Z,12.10
2023-05-02T18:36:32.649Z,12.10
2023-05-02T18:39:34.512Z,12.10
2023-05-02T18:42:35.737Z,12.00
2023-05-02T18:45:36.759Z,11.90
2023-05-02T18:48:38.220Z,11.80
2023-05-02T18:51:39.308Z,11.60
2023-05-02T18:54:40.188Z,11.40
2023-05-02T18:57:44.721Z,11.10
2023-05-02T19:00:45.842Z,11.00
2023-05-02T19:03:46.549Z,10.80
2023-05-02T19:06:48.183Z,10.60
2023-05-02T19:09:49.079Z,10.30
2023-05-02T19:12:50.091Z,10.30
2023-05-02T19:15:50.885Z,10.30
2023-05-02T19:18:53.669Z,10.30
2023-05-02T19:21:54.765Z,10.30
2023-05-02T19:24:55.684Z,10.40
2023-05-02T19:27:56.541Z,10.30
2023-05-02T19:30:57.742Z,10.30
2023-05-02T19:33:59.072Z,10.30
2023-05-02T19:36:59.894Z,10.30
2023-05-02T19:40:01.091Z,10.30
2023-05-02T19:43:02.275Z,10.20
2023-05-02T19:46:03.398Z,10.30
2023-05-02T19:49:04.112Z,10.20
2023-05-02T19:52:05.313Z,10.30
2023-05-02T19:55:07.563Z,10.30
2023-05-02T19:58:08.661Z,10.30
2023-05-02T20:01:09.367Z,10.20
2023-05-02T20:04:10.241Z,10.20
2023-05-02T20:07:11.157Z,10.10
2023-05-02T20:10:12.125Z,10.10
2023-05-02T20:13:13.300Z,10.00
2023-05-02T20:16:14.718Z,10.00
2023-05-02T20:19:19.983Z,10.00
2023-05-02T20:22:22.833Z,10.00
2023-05-02T20:25:24.369Z,10.00
2023-05-02T20:28:26.061Z,10.00
2023-05-02T20:31:27.378Z,10.00
2023-05-02T20:34:28.622Z,9.90
2023-05-02T20:37:30.278Z,10.00
2023-05-02T20:40:32.507Z,10.00
2023-05-02T20:43:36.414Z,9.90
2023-05-02T20:46:38.184Z,9.90
2023-05-02T20:49:39.474Z,10.00
2023-05-02T20:52:40.701Z,10.00
2023-05-02T20:55:41.838Z,9.90
2023-05-02T20:58:43.316Z,9.90
2023-05-02T21:01:44.188Z,10.00
2023-05-02T21:04:45.245Z,9.80
2023-05-02T21:07:46.692Z,9.50
2023-05-02T21:10:48.078Z,9.50
2023-05-02T21:13:49.119Z,9.60
2023-05-02T21:16:50.192Z,9.70
2023-05-02T21:19:55.283Z,9.70
2023-05-02T21:22:56.704Z,9.70
2023-05-02T21:25:57.794Z,9.70
2023-05-02T21:28:59.189Z,9.60
2023-05-02T21:32:00.433Z,9.60
2023-05-02T21:35:02.169Z,9.40
2023-05-02T21:38:03.302Z,9.30
2023-05-02T21:41:06.125Z,9.30
2023-05-02T21:44:11.060Z,9.10
2023-05-02T21:47:12.459Z,9.00
2023-05-02T21:50:13.608Z,9.10
2023-05-02T21:53:14.984Z,9.10
2023-05-02T21:56:16.185Z,9.10
2023-05-02T21:59:17.461Z,9.10
2023-05-02T22:02:18.491Z,9.10
2023-05-02T22:05:19.566Z,9.10
2023-05-02T22:08:20.814Z,9.00
2023-05-02T22:11:21.995Z,9.00
2023-05-02T22:14:33.812Z,9.00
2023-05-02T22:17:43.498Z,8.90
2023-05-02T22:20:45.970Z,8.80
2023-05-02T22:23:46.928Z,8.80
2023-05-02T22:26:50.790Z,8.70
2023-05-02T22:29:51.777Z,8.50
2023-05-02T22:32:53.009Z,8.40
2023-05-02T22:35:54.018Z,8.50
2023-05-02T22:38:54.894Z,8.30
2023-05-02T22:41:55.960Z,8.30
2023-05-02T22:44:57.091Z,8.20
2023-05-02T22:47:58.381Z,8.20
2023-05-02T22:50:59.878Z,8.10
2023-05-02T22:54:00.723Z,8.10
2023-05-02T22:57:02.023Z,8.10
2023-05-02T23:00:05.744Z,8.00
2023-05-02T23:03:07.115Z,7.90
2023-05-02T23:06:08.498Z,7.80
2023-05-02T23:09:09.449Z,7.50
2023-05-02T23:12:10.422Z,7.50
2023-05-02T23:15:11.806Z,7.60
2023-05-02T23:18:13.237Z,7.50
2023-05-02T23:21:15.982Z,7.40
2023-05-02T23:24:17.131Z,7.50
2023-05-02T23:27:18.273Z,7.50
2023-05-02T23:30:19.396Z,7.30
2023-05-02T23:33:20.759Z,7.40
2023-05-02T23:36:22.136Z,7.40
2023-05-02T23:39:23.988Z,7.30
2023-05-02T23:42:25.256Z,7.30
2023-05-02T23:45:27.280Z,7.10
2023-05-02T23:48:28.105Z,6.90
2023-05-02T23:51:29.093Z,6.70
2023-05-02T23:54:32.036Z,6.70
2023-05-02T23:57:34.867Z,7.00
